Time;durP1;ratioP1;P1;durP2;ratioP2;P2;SDS_P1;SDS_P2;PMS_P1;PMS_P2;Temp;Humidity;BMP_temperature;BMP_pressure;BME280_temperature;BME280_humidity;BME280_pressure;Samples;Min_cycle;Max_cycle;Signal;HPM_P1;HPM_P2
2022/12/30 00:00:16;;;;;;;22.75;4.38;;;;;;;6.08;100.00;97462.81;5077705;28;20059;-85
2022/12/30 00:02:42;;;;;;;20.75;3.75;;;;;;;6.07;100.00;97454.19;5079190;28;20121;-84
2022/12/30 00:05:10;;;;;;;22.55;4.00;;;;;;;6.20;100.00;97436.94;5082098;28;20490;-85
2022/12/30 00:07:36;;;;;;;18.95;4.05;;;;;;;6.53;100.00;97470.69;5085114;28;20028;-87
2022/12/30 00:10:03;;;;;;;21.50;4.25;;;;;;;6.28;100.00;97431.50;5079924;28;20025;-85
2022/12/30 00:34:46;;;;;;;15.45;3.22;;;;;;;7.20;100.00;97479.97;5085985;28;20029;-85
2022/12/30 00:37:12;;;;;;;12.90;2.92;;;;;;;6.95;100.00;97448.63;5086021;28;20381;-86
2022/12/30 00:39:38;;;;;;;13.13;3.20;;;;;;;6.99;100.00;97440.16;5088834;28;20530;-86
2022/12/30 00:44:50;;;;;;;15.07;3.15;;;;;;;6.92;100.00;97400.28;5085855;28;20485;-85
2022/12/30 00:47:16;;;;;;;18.67;3.67;;;;;;;7.24;100.00;97428.94;5086621;28;20115;-87
2022/12/30 00:57:55;;;;;;;20.50;3.85;;;;;;;7.29;100.00;97387.38;5077839;28;20050;-85
2022/12/30 01:00:21;;;;;;;20.02;3.42;;;;;;;7.04;100.00;97355.25;5081137;28;20040;-86
2022/12/30 01:02:48;;;;;;;18.23;3.88;;;;;;;7.27;100.00;97380.75;5083709;28;20052;-85
2022/12/30 01:05:13;;;;;;;17.58;4.43;;;;;;;7.14;100.00;97374.63;5068137;28;20056;-87
2022/12/30 01:07:39;;;;;;;23.92;3.88;;;;;;;7.12;100.00;97391.53;5081752;28;20032;-86
2022/12/30 01:10:05;;;;;;;23.58;5.32;;;;;;;6.96;100.00;97374.56;5067154;28;20025;-88
2022/12/30 01:12:31;;;;;;;15.18;3.65;;;;;;;6.79;100.00;97374.28;5087129;28;20028;-87
2022/12/30 01:14:58;;;;;;;20.35;4.00;;;;;;;7.42;100.00;97403.91;5069630;28;20024;-85
2022/12/30 01:17:30;;;;;;;15.77;3.38;;;;;;;7.58;100.00;97397.34;5066514;28;20043;-86
2022/12/30 01:19:57;;;;;;;18.83;3.80;;;;;;;7.39;100.00;97378.25;5057063;28;20426;-85
2022/12/30 01:22:23;;;;;;;22.27;3.90;;;;;;;7.26;100.00;97363.50;5076988;28;20048;-86
2022/12/30 01:24:48;;;;;;;16.58;4.80;;;;;;;7.16;100.00;97345.72;5082641;28;20493;-86
2022/12/30 01:27:15;;;;;;;15.23;3.97;;;;;;;7.58;100.00;97345.13;5084249;28;20031;-84
2022/12/30 01:29:42;;;;;;;20.50;5.00;;;;;;;7.59;100.00;97362.41;5083917;28;20027;-85
2022/12/30 01:32:15;;;;;;;22.13;6.35;;;;;;;7.35;100.00;97330.09;5088179;28;20367;-85
2022/12/30 01:34:42;;;;;;;23.23;6.40;;;;;;;7.72;100.00;97351.78;5068083;28;20020;-85
2022/12/30 01:37:09;;;;;;;19.23;7.20;;;;;;;7.67;100.00;97343.03;5077479;28;20039;-86
2022/12/30 01:39:35;;;;;;;30.13;7.53;;;;;;;7.58;100.00;97303.34;5083524;28;20082;-87
2022/12/30 01:42:02;;;;;;;30.17;8.20;;;;;;;7.53;100.00;97301.38;5061563;28;20029;-86
2022/12/30 01:44:57;;;;;;;23.90;7.80;;;;;;;7.54;100.00;97326.47;5064827;28;20139;-85
2022/12/30 01:47:40;;;;;;;23.73;8.45;;;;;;;7.68;100.00;97323.75;5082026;28;20078;-85
2022/12/30 01:50:17;;;;;;;19.02;6.93;;;;;;;7.79;100.00;97320.38;5082170;28;20032;-85
2022/12/30 01:52:52;;;;;;;22.27;7.05;;;;;;;7.78;100.00;97294.50;5082385;28;20346;-85
2022/12/30 01:55:28;;;;;;;18.65;6.55;;;;;;;7.72;100.00;97275.28;5082897;28;20150;-85
2022/12/30 01:57:56;;;;;;;27.77;7.68;;;;;;;7.38;100.00;97286.09;5088936;28;20086;-85
2022/12/30 02:00:22;;;;;;;21.17;6.40;;;;;;;7.46;100.00;97268.53;5067646;28;20558;-84
2022/12/30 02:02:55;;;;;;;24.45;7.00;;;;;;;7.72;100.00;97268.22;5090590;28;20096;-84
2022/12/30 02:05:24;;;;;;;21.40;5.25;;;;;;;7.45;100.00;97246.06;5061241;28;20382;-87
2022/12/30 02:08:13;;;;;;;23.80;6.30;;;;;;;7.60;100.00;97274.41;5082153;28;20031;-85
2022/12/30 02:10:45;;;;;;;20.58;5.65;;;;;;;7.52;100.00;97273.69;5078459;28;20032;-85
2022/12/30 02:13:18;;;;;;;19.58;5.57;;;;;;;7.37;100.00;97270.63;5080603;28;20389;-85
2022/12/30 02:16:06;;;;;;;30.95;5.65;;;;;;;7.42;100.00;97262.94;5079341;28;20386;-85
2022/12/30 02:19:00;;;;;;;16.60;4.95;;;;;;;7.23;100.00;97265.56;5065151;28;20031;-85
2022/12/30 02:21:49;;;;;;;34.15;5.68;;;;;;;7.61;100.00;97242.03;5070005;28;20362;-85
2022/12/30 02:24:21;;;;;;;23.80;4.82;;;;;;;7.48;100.00;97238.59;5081258;28;20020;-85
2022/12/30 02:27:12;;;;;;;18.02;4.97;;;;;;;7.47;100.00;97226.56;5082035;28;20516;-84
2022/12/30 02:29:44;;;;;;;17.98;4.55;;;;;;;7.52;100.00;97218.06;5065286;28;20031;-86
2022/12/30 02:32:27;;;;;;;30.40;6.07;;;;;;;7.19;100.00;97178.28;5079786;28;20023;-85
2022/12/30 02:35:11;;;;;;;20.98;4.07;;;;;;;7.45;100.00;97210.28;5059957;28;20052;-86
2022/12/30 02:37:49;;;;;;;20.40;4.13;;;;;;;7.17;100.00;97142.97;5084053;28;20085;-87
2022/12/30 02:40:26;;;;;;;22.40;4.68;;;;;;;7.38;100.00;97157.38;5083861;28;20024;-86
2022/12/30 02:46:03;;;;;;;23.73;4.40;;;;;;;7.59;100.00;97187.44;5079056;28;20107;-88
2022/12/30 02:48:33;;;;;;;25.35;4.10;;;;;;;7.41;100.00;97125.63;5088224;28;20409;-86
2022/12/30 02:53:46;;;;;;;14.20;4.03;;;;;;;7.58;100.00;97136.25;5080751;28;20121;-86
2022/12/30 02:56:11;;;;;;;19.25;4.03;;;;;;;7.71;100.00;97135.25;5082523;28;20052;-84
2022/12/30 03:03:57;;;;;;;23.65;3.90;;;;;;;7.89;100.00;97141.44;5062140;28;20040;-84
2022/12/30 03:04:57;;;;;;;21.33;4.05;;;;;;;8.13;100.00;97137.84;5081095;28;20108;-84
2022/12/30 03:07:42;;;;;;;17.92;3.33;;;;;;;7.73;100.00;97070.53;5076339;28;20029;-83
2022/12/30 03:13:09;;;;;;;22.02;3.47;;;;;;;8.18;100.00;97078.88;5081620;28;20051;-84
2022/12/30 03:15:44;;;;;;;14.48;2.85;;;;;;;8.29;100.00;97083.31;5074217;28;20074;-84
2022/12/30 03:18:11;;;;;;;15.13;3.05;;;;;;;8.44;100.00;97103.75;5086883;28;20030;-84
2022/12/30 03:20:39;;;;;;;15.68;3.58;;;;;;;8.49;100.00;97093.41;5080806;28;20062;-85
2022/12/30 03:28:43;;;;;;;15.80;3.20;;;;;;;8.04;100.00;97070.47;5080095;28;20240;-85
2022/12/30 03:31:13;;;;;;;18.98;3.47;;;;;;;8.11;100.00;97051.03;5066037;28;20037;-85
2022/12/30 03:33:40;;;;;;;17.05;3.83;;;;;;;8.08;100.00;97077.63;5079059;28;20036;-86
2022/12/30 03:36:27;;;;;;;18.73;3.92;;;;;;;8.31;100.00;97078.66;5076651;28;20055;-84
2022/12/30 03:39:02;;;;;;;16.30;3.47;;;;;;;8.34;100.00;97075.56;5062543;28;20035;-83
2022/12/30 03:41:29;;;;;;;13.60;3.35;;;;;;;8.35;100.00;97066.72;5081307;28;20413;-85
2022/12/30 03:43:56;;;;;;;13.05;3.38;;;;;;;8.10;100.00;97054.69;5080282;28;20042;-83
2022/12/30 03:46:27;;;;;;;16.88;3.38;;;;;;;8.32;100.00;97030.56;5084793;28;20048;-86
2022/12/30 03:48:53;;;;;;;16.23;3.85;;;;;;;8.06;100.00;96995.25;5062512;28;20028;-85
2022/12/30 03:51:18;;;;;;;20.70;3.45;;;;;;;8.41;100.00;97025.78;5083714;28;20086;-86
2022/12/30 03:53:43;;;;;;;21.70;3.15;;;;;;;8.11;100.00;96964.81;5079517;28;20047;-86
2022/12/30 03:56:09;;;;;;;13.30;4.22;;;;;;;7.93;100.00;96950.03;5086351;28;20024;-84
2022/12/30 03:58:35;;;;;;;15.80;3.70;;;;;;;8.26;100.00;96984.44;5083451;28;20122;-84
2022/12/30 04:01:04;;;;;;;22.10;3.97;;;;;;;8.30;100.00;96943.75;5078407;28;20474;-84
2022/12/30 04:03:30;;;;;;;15.68;4.47;;;;;;;8.29;100.00;96974.31;5069230;28;20031;-84
2022/12/30 04:05:55;;;;;;;14.45;3.92;;;;;;;8.40;100.00;96970.09;5081574;28;20112;-85
2022/12/30 04:08:22;;;;;;;22.58;3.40;;;;;;;8.35;100.00;96930.78;5087325;28;20024;-88
2022/12/30 04:10:49;;;;;;;24.45;3.80;;;;;;;8.35;100.00;96966.56;5094727;28;20027;-87
2022/12/30 04:13:16;;;;;;;15.23;3.60;;;;;;;8.35;100.00;96962.16;5089734;28;20020;-87
2022/12/30 04:15:47;;;;;;;18.90;3.80;;;;;;;8.57;100.00;96966.78;5070718;28;20138;-86
2022/12/30 04:18:12;;;;;;;18.48;3.70;;;;;;;8.53;100.00;96952.59;5063476;28;20063;-84
2022/12/30 04:20:38;;;;;;;25.08;4.05;;;;;;;8.41;100.00;96929.84;5090780;28;20052;-85
2022/12/30 04:23:04;;;;;;;26.88;4.00;;;;;;;8.48;100.00;96932.31;5079468;28;20590;-85
2022/12/30 04:25:30;;;;;;;19.25;4.18;;;;;;;8.67;100.00;96927.75;5068718;28;20060;-85
2022/12/30 04:27:56;;;;;;;19.77;4.30;;;;;;;8.63;100.00;96926.59;5082883;28;20032;-83
2022/12/30 04:30:21;;;;;;;18.58;5.22;;;;;;;8.64;100.00;96933.41;5086163;28;20162;-84
2022/12/30 04:32:48;;;;;;;22.20;4.07;;;;;;;8.69;100.00;96886.47;5079688;28;20024;-85
2022/12/30 04:35:13;;;;;;;16.83;4.25;;;;;;;8.73;100.00;96928.59;5084979;28;20161;-84
2022/12/30 04:37:39;;;;;;;16.92;3.97;;;;;;;8.22;100.00;96876.94;5065461;28;20106;-86
2022/12/30 04:40:05;;;;;;;18.95;3.95;;;;;;;8.80;100.00;96904.94;5070697;28;20028;-87
2022/12/30 04:42:30;;;;;;;15.75;4.00;;;;;;;8.74;100.00;96874.50;5086916;28;20028;-87
2022/12/30 04:44:56;;;;;;;16.45;3.80;;;;;;;8.76;100.00;96901.19;5071241;28;20038;-84
2022/12/30 04:47:21;;;;;;;17.98;3.88;;;;;;;8.86;100.00;96898.78;5088989;28;20085;-87
2022/12/30 04:49:47;;;;;;;20.75;3.22;;;;;;;8.53;100.00;96848.00;5082021;28;20020;-86
2022/12/30 04:52:13;;;;;;;20.10;3.58;;;;;;;8.29;100.00;96882.06;5087610;28;20102;-86
2022/12/30 04:54:39;;;;;;;20.80;3.63;;;;;;;8.54;100.00;96863.44;5082869;28;20036;-89
2022/12/30 04:57:04;;;;;;;26.33;4.15;;;;;;;8.76;100.00;96867.19;5066796;28;20080;-86
2022/12/30 04:59:30;;;;;;;22.23;3.80;;;;;;;8.66;100.00;96849.50;5069004;28;20507;-86
2022/12/30 05:01:56;;;;;;;16.60;4.22;;;;;;;8.77;100.00;96880.06;5080392;28;20081;-86
2022/12/30 05:04:21;;;;;;;21.73;4.22;;;;;;;8.42;100.00;96845.16;5088680;28;20043;-85
2022/12/30 05:06:47;;;;;;;18.52;3.92;;;;;;;8.33;100.00;96851.81;5065766;28;20032;-86
2022/12/30 05:09:13;;;;;;;24.80;3.80;;;;;;;8.99;100.00;96898.44;5081724;28;20038;-85
2022/12/30 05:11:39;;;;;;;24.73;4.18;;;;;;;8.71;100.00;96839.94;5081242;28;20363;-85
2022/12/30 05:14:05;;;;;;;20.77;4.57;;;;;;;8.91;100.00;96833.44;5087999;28;20478;-84
2022/12/30 05:16:30;;;;;;;22.33;5.30;;;;;;;9.04;100.00;96874.19;5063207;28;20027;-85
2022/12/30 05:18:56;;;;;;;19.30;3.72;;;;;;;8.65;100.00;96838.28;5089716;28;20048;-85
2022/12/30 05:21:21;;;;;;;20.25;4.35;;;;;;;8.83;100.00;96818.94;5083323;28;20041;-89
2022/12/30 05:26:31;;;;;;;17.95;4.18;;;;;;;8.68;100.00;96798.56;5086511;28;20020;-90
2022/12/30 05:28:57;;;;;;;23.25;4.38;;;;;;;8.74;100.00;96806.47;5070824;28;20033;-87
2022/12/30 05:31:23;;;;;;;16.58;3.58;;;;;;;9.09;100.00;96836.84;5085148;28;20032;-88
2022/12/30 05:33:48;;;;;;;16.70;3.45;;;;;;;9.05;100.00;96801.72;5072817;28;20043;-86
2022/12/30 05:36:14;;;;;;;25.35;3.67;;;;;;;9.32;100.00;96828.00;5069419;28;20032;-87
2022/12/30 05:38:40;;;;;;;19.48;3.13;;;;;;;9.14;100.00;96837.72;5088415;28;20024;-87
2022/12/30 05:41:07;;;;;;;14.90;3.00;;;;;;;8.85;100.00;96813.47;5087280;28;20473;-85
2022/12/30 05:43:33;;;;;;;22.48;3.13;;;;;;;9.09;100.00;96816.69;5087536;28;20131;-86
2022/12/30 05:45:58;;;;;;;18.85;3.67;;;;;;;8.99;100.00;96767.63;5073851;28;20122;-85
2022/12/30 05:48:24;;;;;;;19.08;3.47;;;;;;;9.16;100.00;96803.44;5089547;28;20414;-88
2022/12/30 05:50:51;;;;;;;21.52;3.33;;;;;;;9.10;100.00;96778.22;5070719;28;20355;-86
2022/12/30 05:53:17;;;;;;;23.10;3.70;;;;;;;9.61;100.00;96808.72;5083074;28;20077;-86
2022/12/30 05:55:43;;;;;;;22.33;4.47;;;;;;;9.35;100.00;96803.16;5068404;28;20105;-86
2022/12/30 05:58:09;;;;;;;16.88;3.60;;;;;;;9.37;100.00;96780.16;5085247;28;20052;-86
2022/12/30 06:00:35;;;;;;;21.38;3.80;;;;;;;9.09;100.00;96755.72;5068036;28;20039;-84
2022/12/30 06:03:00;;;;;;;25.75;4.05;;;;;;;9.40;100.00;96777.03;5082772;28;20056;-87
2022/12/30 06:05:26;;;;;;;16.20;3.67;;;;;;;9.22;100.00;96733.63;5077431;28;20064;-86
2022/12/30 06:07:51;;;;;;;21.45;3.92;;;;;;;9.45;100.00;96753.56;5069310;28;20425;-85
2022/12/30 06:10:18;;;;;;;18.52;3.53;;;;;;;9.43;100.00;96753.00;5091068;28;20113;-85
2022/12/30 06:12:43;;;;;;;15.30;3.28;;;;;;;9.31;100.00;96737.41;5084003;28;20028;-86
2022/12/30 06:15:09;;;;;;;23.13;3.88;;;;;;;9.36;100.00;96760.25;5068365;28;20024;-86
2022/12/30 06:17:35;;;;;;;13.05;2.58;;;;;;;9.25;100.00;96733.94;5085886;28;20118;-89
2022/12/30 06:20:01;;;;;;;16.77;3.83;;;;;;;9.05;100.00;96718.00;5082904;28;20028;-86
2022/12/30 06:22:26;;;;;;;19.23;2.90;;;;;;;9.16;100.00;96690.91;5066149;28;20042;-87
2022/12/30 06:24:52;;;;;;;15.48;2.95;;;;;;;9.43;100.00;96739.91;5066040;28;20032;-86
2022/12/30 06:27:18;;;;;;;20.10;3.28;;;;;;;9.43;100.00;96718.94;5069607;28;20036;-86
2022/12/30 06:29:44;;;;;;;17.30;3.28;;;;;;;9.58;100.00;96700.78;5087329;28;20033;-86
2022/12/30 06:32:09;;;;;;;17.88;3.75;;;;;;;9.58;100.00;96726.22;5085719;28;20080;-85
2022/12/30 06:34:35;;;;;;;19.50;3.90;;;;;;;9.47;100.00;96683.41;5086217;28;20024;-87
2022/12/30 06:37:01;;;;;;;23.85;3.60;;;;;;;9.29;100.00;96684.50;5080195;28;20126;-86
2022/12/30 06:39:27;;;;;;;17.73;3.53;;;;;;;9.37;100.00;96689.31;5080284;28;20035;-87
2022/12/30 06:41:52;;;;;;;20.80;3.33;;;;;;;9.66;100.00;96696.19;5080545;28;20025;-85
2022/12/30 06:44:18;;;;;;;14.02;3.58;;;;;;;9.81;100.00;96698.16;5085959;28;20031;-86
2022/12/30 06:46:43;;;;;;;15.73;3.00;;;;;;;9.39;100.00;96691.69;5093584;28;20028;-86
2022/12/30 06:49:10;;;;;;;20.58;3.40;;;;;;;9.97;100.00;96722.66;5064579;28;20043;-87
2022/12/30 06:51:35;;;;;;;21.10;4.05;;;;;;;9.37;100.00;96663.13;5086823;28;20105;-87
2022/12/30 06:54:01;;;;;;;16.40;3.22;;;;;;;9.61;100.00;96701.34;5084582;28;20453;-86
2022/12/30 06:56:27;;;;;;;16.10;2.97;;;;;;;9.56;100.00;96666.22;5081686;28;20032;-85
2022/12/30 06:58:53;;;;;;;19.50;3.58;;;;;;;9.71;100.00;96651.69;5078354;28;20039;-86
2022/12/30 07:01:19;;;;;;;26.23;3.58;;;;;;;9.67;100.00;96655.84;5064947;28;20393;-85
2022/12/30 07:03:44;;;;;;;16.15;2.90;;;;;;;9.67;100.00;96630.44;5062391;28;20031;-84
2022/12/30 07:06:10;;;;;;;17.00;3.33;;;;;;;9.73;100.00;96644.38;5069749;28;20431;-85
2022/12/30 07:08:36;;;;;;;16.67;3.10;;;;;;;9.86;100.00;96625.63;5087144;28;20024;-86
2022/12/30 07:11:01;;;;;;;23.95;4.40;;;;;;;9.68;100.00;96607.66;5085098;28;20020;-84
2022/12/30 07:13:28;;;;;;;19.98;3.08;;;;;;;9.72;100.00;96629.69;5065510;28;20386;-87
2022/12/30 07:15:55;;;;;;;20.58;3.05;;;;;;;9.91;100.00;96614.38;5084855;28;20047;-88
2022/12/30 07:18:20;;;;;;;15.70;2.80;;;;;;;9.93;100.00;96596.59;5083915;28;20048;-87
2022/12/30 07:20:46;;;;;;;25.45;4.00;;;;;;;9.79;100.00;96558.75;5081522;28;20024;-88
2022/12/30 07:23:14;;;;;;;18.25;3.50;;;;;;;9.84;100.00;96619.84;5063666;28;20036;-87
2022/12/30 07:25:44;;;;;;;15.82;3.30;;;;;;;9.91;100.00;96587.41;5084843;28;20386;-86
2022/12/30 07:28:10;;;;;;;17.83;2.85;;;;;;;9.80;100.00;96592.56;5081300;28;20431;-86
2022/12/30 07:30:36;;;;;;;19.90;3.75;;;;;;;9.68;100.00;96566.53;5063149;28;20029;-87
2022/12/30 07:33:01;;;;;;;18.27;3.35;;;;;;;9.76;100.00;96549.56;5084257;28;20031;-87
2022/12/30 07:35:27;;;;;;;21.13;4.40;;;;;;;9.37;100.00;96510.50;5086356;28;20051;-86
2022/12/30 07:37:53;;;;;;;16.98;3.50;;;;;;;9.81;100.00;96525.25;5086551;28;20074;-85
2022/12/30 07:40:18;;;;;;;14.15;3.20;;;;;;;9.77;100.00;96566.84;5066764;28;20032;-86
2022/12/30 07:42:44;;;;;;;14.43;2.70;;;;;;;9.69;100.00;96514.94;5070278;28;20402;-84
2022/12/30 07:45:10;;;;;;;16.65;3.00;;;;;;;9.71;100.00;96510.22;5089411;28;20500;-85
2022/12/30 07:47:36;;;;;;;12.18;2.45;;;;;;;9.84;100.00;96532.59;5067320;28;20028;-87
2022/12/30 07:50:05;;;;;;;20.25;3.53;;;;;;;9.82;100.00;96500.63;5096849;28;20028;-86
2022/12/30 07:52:30;;;;;;;17.58;2.58;;;;;;;9.65;100.00;96519.88;5100443;28;20042;-86
2022/12/30 07:54:56;;;;;;;16.13;3.42;;;;;;;9.93;100.00;96525.06;5095690;28;20388;-87
2022/12/30 07:57:21;;;;;;;21.33;4.55;;;;;;;9.79;100.00;96496.66;5076104;28;20117;-85
2022/12/30 07:59:47;;;;;;;19.27;2.92;;;;;;;9.88;100.00;96488.34;5076963;28;20032;-85
2022/12/30 08:02:13;;;;;;;12.52;2.92;;;;;;;9.96;100.00;96480.00;5099748;28;20444;-87
2022/12/30 08:04:38;;;;;;;31.17;3.60;;;;;;;9.76;100.00;96473.59;5065452;28;20075;-86
2022/12/30 08:07:04;;;;;;;16.17;3.25;;;;;;;9.90;100.00;96505.38;5087475;28;20033;-85
2022/12/30 08:09:30;;;;;;;16.50;2.97;;;;;;;9.85;100.00;96510.59;5062238;28;20363;-86
2022/12/30 08:11:55;;;;;;;18.80;2.90;;;;;;;9.44;100.00;96453.50;5079183;28;20096;-86
2022/12/30 08:14:21;;;;;;;26.52;4.53;;;;;;;9.81;100.00;96486.72;5082190;28;20039;-88
2022/12/30 08:16:48;;;;;;;23.50;4.30;;;;;;;9.71;100.00;96450.75;5089742;28;20169;-88
2022/12/30 08:19:14;;;;;;;15.90;3.30;;;;;;;9.86;100.00;96444.84;5099226;28;20067;-88
2022/12/30 08:21:39;;;;;;;19.52;4.90;;;;;;;10.02;100.00;96452.75;5085040;28;20035;-86
2022/12/30 08:24:05;;;;;;;19.50;3.10;;;;;;;9.84;100.00;96425.16;5084542;28;20027;-86
2022/12/30 08:26:31;;;;;;;18.23;3.97;;;;;;;9.88;100.00;96409.75;5080511;28;20466;-83
2022/12/30 08:28:56;;;;;;;21.00;4.20;;;;;;;10.09;100.00;96437.63;5089091;28;20035;-85
2022/12/30 08:31:24;;;;;;;16.02;3.42;;;;;;;10.07;100.00;96444.16;5089336;28;20388;-85
2022/12/30 08:33:51;;;;;;;25.35;5.28;;;;;;;9.64;100.00;96402.28;5071673;28;20032;-86
2022/12/30 08:36:21;;;;;;;23.08;5.00;;;;;;;9.60;100.00;96406.44;5083554;28;20028;-84
2022/12/30 08:38:50;;;;;;;19.23;3.35;;;;;;;9.83;100.00;96434.88;5080977;28;20041;-84
2022/12/30 08:41:25;;;;;;;14.02;3.00;;;;;;;9.74;100.00;96383.22;5076618;28;20028;-84
2022/12/30 08:43:54;;;;;;;19.55;3.72;;;;;;;10.02;100.00;96400.34;5083551;28;20020;-84
2022/12/30 08:46:25;;;;;;;21.45;4.70;;;;;;;9.67;100.00;96358.03;5086870;28;20063;-83
2022/12/30 08:48:51;;;;;;;16.58;3.55;;;;;;;9.53;100.00;96349.84;5079114;28;20031;-86
2022/12/30 08:51:17;;;;;;;16.77;3.78;;;;;;;9.60;100.00;96365.31;5084274;28;20070;-88
2022/12/30 08:53:43;;;;;;;24.27;3.80;;;;;;;9.74;100.00;96347.31;5089554;28;20115;-87
2022/12/30 08:56:15;;;;;;;18.40;3.45;;;;;;;9.88;100.00;96359.97;5088064;28;20024;-86
2022/12/30 08:58:41;;;;;;;24.55;4.22;;;;;;;9.91;100.00;96346.34;5067977;28;20048;-86
2022/12/30 09:01:18;;;;;;;21.15;3.97;;;;;;;9.80;100.00;96327.19;5083436;28;20428;-88
2022/12/30 09:03:45;;;;;;;16.73;3.17;;;;;;;9.36;100.00;96291.63;5086763;28;20033;-88
2022/12/30 09:06:13;;;;;;;16.27;4.43;;;;;;;9.67;100.00;96338.91;5085416;28;20032;-85
2022/12/30 09:08:38;;;;;;;18.63;4.13;;;;;;;9.63;100.00;96314.25;5064512;28;20036;-80
2022/12/30 09:11:07;;;;;;;18.20;4.72;;;;;;;9.91;100.00;96320.91;5082389;28;20028;-82
2022/12/30 09:13:36;;;;;;;16.73;3.60;;;;;;;9.65;100.00;96309.56;5077677;28;20039;-82
2022/12/30 09:16:06;;;;;;;16.10;3.67;;;;;;;9.50;100.00;96307.66;5085689;28;20549;-83
2022/12/30 09:18:34;;;;;;;15.98;4.28;;;;;;;9.95;100.00;96300.22;5088352;28;20111;-87
2022/12/30 09:21:01;;;;;;;14.65;3.10;;;;;;;9.93;100.00;96294.47;5085520;28;20055;-86
2022/12/30 09:23:26;;;;;;;17.90;3.85;;;;;;;9.50;100.00;96277.03;5067908;28;20034;-87
2022/12/30 09:25:52;;;;;;;17.05;3.17;;;;;;;9.31;100.00;96254.97;5060697;28;20466;-82
2022/12/30 09:28:18;;;;;;;12.80;3.15;;;;;;;9.78;100.00;96275.03;5062166;28;20515;-87
2022/12/30 09:30:44;;;;;;;17.25;3.10;;;;;;;9.48;100.00;96276.50;5085966;28;20033;-87
2022/12/30 09:33:10;;;;;;;14.32;3.38;;;;;;;9.54;100.00;96254.53;5070348;28;20434;-85
2022/12/30 09:35:35;;;;;;;17.80;3.42;;;;;;;9.83;100.00;96233.16;5061714;28;20056;-87
2022/12/30 09:38:01;;;;;;;19.35;3.90;;;;;;;9.89;100.00;96260.13;5070786;28;20031;-84
2022/12/30 09:41:04;;;;;;;19.05;3.28;;;;;;;10.06;100.00;96262.53;5066614;28;20028;-87
2022/12/30 09:43:49;;;;;;;11.32;2.92;;;;;;;10.09;100.00;96248.91;5083710;28;20039;-86
2022/12/30 09:46:24;;;;;;;9.73;2.35;;;;;;;10.05;100.00;96239.19;5063942;28;20047;-86
2022/12/30 09:48:57;;;;;;;11.55;2.88;;;;;;;10.32;100.00;96225.84;5091109;28;20027;-89
2022/12/30 09:51:27;;;;;;;12.30;2.92;;;;;;;10.11;100.00;96236.31;5064826;28;20036;-86
2022/12/30 09:54:03;;;;;;;10.50;2.67;;;;;;;10.10;100.00;96229.50;5079288;28;20116;-80
2022/12/30 09:56:33;;;;;;;15.63;2.67;;;;;;;10.14;100.00;96216.69;5089100;28;20031;-81
2022/12/30 09:59:05;;;;;;;10.98;2.80;;;;;;;10.23;100.00;96230.81;5082397;28;20028;-83
2022/12/30 10:01:43;;;;;;;8.85;2.58;;;;;;;10.13;100.00;96222.97;5079929;28;20123;-82
2022/12/30 10:04:15;;;;;;;11.80;3.05;;;;;;;10.03;100.00;96218.50;5070743;28;20027;-82
2022/12/30 10:06:47;;;;;;;9.48;2.60;;;;;;;10.06;100.00;96217.19;5085097;28;20536;-80
2022/12/30 10:09:28;;;;;;;8.43;2.58;;;;;;;10.27;100.00;96212.75;5085470;28;20039;-82
2022/12/30 10:12:02;;;;;;;9.10;2.72;;;;;;;9.74;100.00;96169.19;5085515;28;20028;-84
2022/12/30 10:14:48;;;;;;;9.80;2.55;;;;;;;10.07;100.00;96193.34;5089027;28;20166;-83
2022/12/30 10:17:36;;;;;;;10.60;2.78;;;;;;;10.46;100.00;96196.53;5065579;28;20029;-83
2022/12/30 10:20:17;;;;;;;11.75;2.75;;;;;;;10.54;100.00;96185.47;5075753;28;20036;-82
2022/12/30 10:23:04;;;;;;;10.10;2.58;;;;;;;9.98;100.00;96150.34;5081084;28;20566;-81
2022/12/30 10:25:39;;;;;;;10.35;3.38;;;;;;;10.40;100.00;96157.16;5088605;28;20397;-82
2022/12/30 10:28:08;;;;;;;13.25;3.33;;;;;;;10.41;100.00;96129.91;5078456;28;20040;-81
2022/12/30 10:30:40;;;;;;;10.23;3.63;;;;;;;10.68;100.00;96133.25;5077170;28;20028;-81
2022/12/30 10:33:13;;;;;;;13.18;3.42;;;;;;;10.33;100.00;96130.41;5078664;28;20378;-81
2022/12/30 10:35:40;;;;;;;7.43;2.45;;;;;;;10.11;100.00;96121.00;5080269;28;20059;-82
2022/12/30 10:38:14;;;;;;;7.13;2.85;;;;;;;10.63;100.00;96147.19;5086701;28;20034;-81
2022/12/30 10:40:48;;;;;;;8.27;2.50;;;;;;;10.15;100.00;96122.03;5069710;28;20103;-81
2022/12/30 10:43:28;;;;;;;9.77;2.38;;;;;;;10.39;100.00;96118.84;5084057;28;20058;-82
2022/12/30 10:46:19;;;;;;;4.15;2.10;;;;;;;10.46;100.00;96108.13;5067064;28;20109;-82
2022/12/30 10:48:56;;;;;;;7.05;2.78;;;;;;;10.51;100.00;96099.47;5087061;28;20028;-80
2022/12/30 10:51:25;;;;;;;7.63;2.22;;;;;;;10.37;100.00;96084.25;5082919;28;20067;-80
2022/12/30 10:53:52;;;;;;;9.50;2.63;;;;;;;10.23;100.00;96070.16;5085094;28;20466;-80
2022/12/30 10:56:25;;;;;;;8.23;2.53;;;;;;;10.36;100.00;96080.06;5084987;28;20056;-81
2022/12/30 10:58:56;;;;;;;7.38;2.65;;;;;;;10.20;100.00;96057.56;5060123;28;20075;-79
2022/12/30 11:01:27;;;;;;;4.70;2.40;;;;;;;10.21;100.00;96048.63;5079602;28;20556;-84
2022/12/30 11:03:58;;;;;;;6.63;3.50;;;;;;;10.25;100.00;96041.84;5061560;28;20390;-82
2022/12/30 11:06:33;;;;;;;9.18;3.15;;;;;;;10.50;100.00;96021.84;5075918;28;20028;-83
2022/12/30 11:09:22;;;;;;;4.00;2.53;;;;;;;10.27;100.00;96018.75;5079922;28;20036;-86
2022/12/30 11:14:44;;;;;;;3.72;2.75;;;;;;;10.42;100.00;95997.75;5081627;28;20024;-83
2022/12/30 11:17:16;;;;;;;5.90;2.78;;;;;;;10.37;100.00;96010.84;5064124;28;20474;-84
2022/12/30 11:19:46;;;;;;;7.60;2.75;;;;;;;10.21;100.00;95977.88;5082440;28;20024;-85
2022/12/30 11:22:11;;;;;;;6.43;2.75;;;;;;;10.08;100.00;95964.28;5079417;28;20024;-85
2022/12/30 11:24:39;;;;;;;11.50;2.90;;;;;;;10.24;100.00;95970.25;5064998;28;20066;-86
2022/12/30 11:27:07;;;;;;;6.85;3.20;;;;;;;10.23;100.00;95944.34;5064623;28;20092;-84
2022/12/30 11:29:36;;;;;;;7.93;3.13;;;;;;;10.05;100.00;95948.31;5081953;28;20031;-84
2022/12/30 11:32:11;;;;;;;6.68;3.33;;;;;;;10.52;100.00;95930.59;5082405;28;20666;-84
2022/12/30 11:34:39;;;;;;;5.78;2.80;;;;;;;10.62;100.00;95930.53;5081553;28;20025;-84
2022/12/30 11:37:33;;;;;;;5.28;2.95;;;;;;;10.63;100.00;95934.72;5080356;28;20422;-82
2022/12/30 11:40:18;;;;;;;;;;;;;;;10.43;100.00;95944.28;5070798;28;20079;-81
2022/12/30 11:42:45;;;;;;;14.68;2.90;;;;;;;10.71;100.00;95915.00;5061189;28;20281;-82
2022/12/30 11:45:18;;;;;;;5.63;2.80;;;;;;;10.43;100.00;95928.53;5082534;28;20103;-83
2022/12/30 11:47:46;;;;;;;7.68;2.60;;;;;;;10.47;100.00;95904.41;5080860;28;20028;-84
2022/12/30 11:50:17;;;;;;;8.25;3.15;;;;;;;10.94;100.00;95910.91;5078520;28;20158;-82
2022/12/30 11:52:50;;;;;;;5.20;2.67;;;;;;;10.68;100.00;95924.19;5080430;28;20475;-82
2022/12/30 11:55:23;;;;;;;5.57;3.53;;;;;;;10.52;100.00;95905.16;5078750;28;20059;-85
2022/12/30 11:57:51;;;;;;;6.97;3.07;;;;;;;10.91;100.00;95921.94;5082199;28;20048;-84
2022/12/30 12:00:19;;;;;;;5.97;2.90;;;;;;;10.93;100.00;95908.56;5083047;28;20356;-87
2022/12/30 12:02:59;;;;;;;5.65;2.55;;;;;;;10.82;100.00;95871.13;5082662;28;20052;-85
2022/12/30 12:05:31;;;;;;;3.20;2.60;;;;;;;10.92;100.00;95849.25;5065471;28;20040;-85
2022/12/30 12:08:29;;;;;;;5.63;2.58;;;;;;;11.07;100.00;95883.22;5082174;28;20165;-84
2022/12/30 12:10:58;;;;;;;5.80;2.97;;;;;;;10.98;100.00;95846.28;5076172;28;20025;-84
2022/12/30 12:13:40;;;;;;;5.05;3.03;;;;;;;11.11;100.00;95863.28;5081755;28;20074;-83
2022/12/30 12:16:14;;;;;;;4.22;3.30;;;;;;;10.89;100.00;95810.44;5064267;28;20036;-88
2022/12/30 12:18:44;;;;;;;4.15;2.92;;;;;;;11.57;100.00;95843.63;5079737;28;20080;-85
2022/12/30 12:21:24;;;;;;;3.03;2.58;;;;;;;11.21;100.00;95862.41;5085233;28;20063;-85
2022/12/30 12:24:05;;;;;;;9.13;2.70;;;;;;;11.69;100.00;95866.91;5084955;28;20047;-86
2022/12/30 12:26:38;;;;;;;5.95;2.40;;;;;;;11.41;100.00;95865.88;5084916;28;20028;-87
2022/12/30 12:29:05;;;;;;;3.63;2.70;;;;;;;11.71;100.00;95846.38;5083767;28;20409;-89
2022/12/30 12:31:33;;;;;;;3.08;2.63;;;;;;;11.74;100.00;95860.03;5086010;28;20362;-86